Time;durP1;ratioP1;P1;durP2;ratioP2;P2;SDS_P1;SDS_P2;PMS_P1;PMS_P2;Temp;Humidity;BMP_temperature;BMP_pressure;BME280_temperature;BME280_humidity;BME280_pressure;Samples;Min_cycle;Max_cycle;Signal;HPM_P1;HPM_P2
2022/05/19 00:02:15;;;;;;;;;10.67;10.67;;;;;26.28;49.36;101020.16;5077055;28;45478;-68
2022/05/19 00:04:43;;;;;;;;;12.00;10.33;;;;;26.38;49.11;101029.88;5076771;28;46207;-72
2022/05/19 00:07:10;;;;;;;;;8.33;8.33;;;;;26.17;49.46;100992.25;5076723;28;45344;-69
2022/05/19 00:09:36;;;;;;;;;12.33;11.67;;;;;26.40;49.59;101035.28;5058387;28;45409;-72
2022/05/19 00:12:07;;;;;;;;;10.00;10.00;;;;;26.31;49.14;101014.59;5070156;28;45488;-70
2022/05/19 00:14:32;;;;;;;;;11.00;9.00;;;;;26.41;49.36;101042.56;5073727;28;45469;-75
2022/05/19 00:16:58;;;;;;;;;12.33;11.33;;;;;26.36;49.51;101036.34;5076521;28;45499;-70
2022/05/19 00:19:25;;;;;;;;;6.33;6.33;;;;;26.19;49.69;101001.34;5077150;28;45418;-70
2022/05/19 00:21:50;;;;;;;;;12.33;9.00;;;;;26.43;49.49;101032.44;5077859;28;45412;-75
2022/05/19 00:24:17;;;;;;;;;10.33;10.33;;;;;26.34;49.22;101019.97;5077741;28;45353;-71
2022/05/19 00:26:42;;;;;;;;;8.33;8.00;;;;;26.40;49.66;101029.78;5077625;28;45494;-68
2022/05/19 00:29:08;;;;;;;;;11.67;11.67;;;;;26.12;49.79;100981.47;5076479;28;45250;-68
2022/05/19 00:31:34;;;;;;;;;13.67;9.33;;;;;26.18;49.86;101007.75;5071355;28;45553;-69
2022/05/19 00:34:01;;;;;;;;;8.67;8.67;;;;;26.30;49.64;101019.19;5076099;28;46192;-69
2022/05/19 00:36:27;;;;;;;;;10.00;9.67;;;;;26.26;50.41;101013.84;5076172;28;45371;-69
2022/05/19 00:38:52;;;;;;;;;9.33;9.33;;;;;26.08;50.62;100994.34;5076387;28;45371;-69
2022/05/19 00:41:18;;;;;;;;;10.33;9.67;;;;;26.19;50.61;101004.06;5076638;28;45397;-70
2022/05/19 00:43:46;;;;;;;;;10.67;10.33;;;;;26.18;50.25;101002.28;5076136;28;45573;-69
2022/05/19 00:46:14;;;;;;;;;17.67;12.67;;;;;26.17;50.25;100993.16;5076021;28;45512;-70
2022/05/19 00:48:56;;;;;;;;;11.33;11.33;;;;;25.97;50.54;100963.75;5076145;28;45502;-72
2022/05/19 00:51:41;;;;;;;;;14.67;12.33;;;;;25.98;50.78;100973.72;5076148;28;45402;-69
2022/05/19 00:54:12;;;;;;;;;10.00;8.67;;;;;25.94;50.35;100959.22;5075869;28;45528;-69
2022/05/19 00:57:01;;;;;;;;;9.67;9.67;;;;;25.99;50.90;100967.31;5073208;28;45484;-68
2022/05/19 00:59:36;;;;;;;;;10.00;10.00;;;;;26.03;50.38;100963.50;5075127;28;45473;-69
2022/05/19 01:02:03;;;;;;;;;11.67;10.67;;;;;25.91;50.85;100942.88;5070065;28;45289;-69
2022/05/19 01:04:39;;;;;;;;;12.33;10.67;;;;;25.88;51.05;100936.63;5075299;28;46022;-68
2022/05/19 01:07:10;;;;;;;;;10.33;10.33;;;;;26.00;50.97;100959.97;5074583;28;45461;-69
2022/05/19 01:09:37;;;;;;;;;13.33;11.33;;;;;25.88;51.02;100945.72;5065286;28;45439;-71
2022/05/19 01:12:04;;;;;;;;;11.00;10.33;;;;;25.97;51.31;100961.00;5067873;28;45619;-68
2022/05/19 01:14:31;;;;;;;;;14.00;11.00;;;;;25.94;51.51;100956.47;5073662;28;45679;-70
2022/05/19 01:16:57;;;;;;;;;9.00;9.00;;;;;25.86;51.54;100946.75;5075342;28;45480;-69
2022/05/19 01:19:49;;;;;;;;;19.00;13.00;;;;;25.87;51.76;100960.38;5073997;28;45420;-69
2022/05/19 01:22:42;;;;;;;;;9.00;9.00;;;;;25.85;51.65;100955.91;5057872;28;45564;-70
2022/05/19 01:25:26;;;;;;;;;11.67;10.33;;;;;25.82;51.89;100958.72;5075867;28;45307;-73
2022/05/19 01:27:51;;;;;;;;;10.33;10.33;;;;;25.57;52.55;100926.72;5070119;28;45746;-72
2022/05/19 01:30:17;;;;;;;;;12.00;12.00;;;;;25.54;52.52;100927.72;5074843;28;45288;-69
2022/05/19 01:32:43;;;;;;;;;9.33;9.33;;;;;25.53;52.95;100938.72;5052905;28;45587;-71
2022/05/19 01:35:09;;;;;;;;;9.00;9.00;;;;;25.67;52.43;100950.09;5075306;28;46439;-69
2022/05/19 01:37:34;;;;;;;;;12.33;11.33;;;;;25.69;52.76;100956.41;5075486;28;45642;-70
2022/05/19 01:40:40;;;;;;;;;12.33;11.00;;;;;25.67;52.34;100961.06;5069034;28;45494;-70
2022/05/19 01:44:03;;;;;;;;;13.33;12.67;;;;;25.65;52.90;100951.09;5075922;28;45287;-70
2022/05/19 01:46:33;;;;;;;;;13.00;13.00;;;;;25.50;52.97;100934.22;5012535;28;46937;-69
2022/05/19 01:49:21;;;;;;;;;11.33;10.67;;;;;25.41;53.46;100926.34;5013135;28;45465;-70
2022/05/19 01:51:55;;;;;;;;;12.33;11.00;;;;;25.61;53.15;100960.38;5060131;28;45322;-69
2022/05/19 01:54:36;;;;;;;;;17.33;11.00;;;;;25.62;53.09;100948.44;5075427;28;45385;-69
2022/05/19 01:57:09;;;;;;;;;11.00;11.00;;;;;25.60;53.09;100953.09;5074913;28;46032;-69
2022/05/19 01:59:43;;;;;;;;;12.00;11.00;;;;;25.43;53.58;100926.28;5074649;28;45377;-69
2022/05/19 02:02:34;;;;;;;;;12.33;11.67;;;;;25.54;53.09;100952.34;5075066;28;45318;-70
2022/05/19 02:05:31;;;;;;;;;11.00;11.00;;;;;25.55;53.09;100953.22;5074182;28;45525;-68
2022/05/19 02:08:01;;;;;;;;;11.67;10.00;;;;;25.36;53.41;100918.28;5074290;28;45422;-69
2022/05/19 02:10:30;;;;;;;;;14.33;12.00;;;;;25.52;53.50;100951.50;5074212;28;45291;-70
2022/05/19 02:12:59;;;;;;;;;12.00;12.00;;;;;25.33;53.56;100920.22;5053566;28;45446;-69
2022/05/19 02:15:28;;;;;;;;;15.00;15.00;;;;;25.55;53.70;100959.59;5068854;28;44956;-70
2022/05/19 02:17:54;;;;;;;;;10.00;10.00;;;;;25.55;53.58;100950.50;5074472;28;46444;-72
2022/05/19 02:20:23;;;;;;;;;11.67;9.67;;;;;25.49;53.54;100940.66;5074365;28;45433;-68
2022/05/19 02:22:49;;;;;;;;;10.67;10.67;;;;;25.56;53.88;100955.03;5067889;28;45477;-68
2022/05/19 02:25:39;;;;;;;;;10.67;8.33;;;;;25.29;53.83;100916.69;5070900;28;45415;-72
2022/05/19 02:28:10;;;;;;;;;12.00;12.00;;;;;25.46;54.08;100954.44;5070826;28;45906;-69
2022/05/19 02:30:38;;;;;;;;;14.33;11.67;;;;;25.44;53.78;100960.88;5074190;28;45468;-67
2022/05/19 02:33:05;;;;;;;;;10.67;9.00;;;;;25.42;54.04;100958.19;5074388;28;45233;-69
2022/05/19 02:35:30;;;;;;;;;12.00;10.33;;;;;25.31;54.57;100950.34;5066288;28;45474;-70
2022/05/19 02:37:58;;;;;;;;;11.67;8.67;;;;;25.27;54.49;100932.22;5074670;28;45521;-69
2022/05/19 02:40:26;;;;;;;;;14.33;11.33;;;;;25.40;54.20;100954.63;5072993;28;45932;-69
2022/05/19 02:42:52;;;;;;;;;14.00;14.00;;;;;25.15;54.83;100928.03;5055595;28;45432;-68
2022/05/19 02:45:19;;;;;;;;;12.00;10.67;;;;;25.28;54.96;100955.91;5074507;28;45270;-70
2022/05/19 02:47:45;;;;;;;;;11.33;10.33;;;;;25.18;54.43;100938.88;5074104;28;45922;-68
2022/05/19 02:50:12;;;;;;;;;12.33;10.67;;;;;25.08;54.99;100918.22;5074189;28;46279;-70
2022/05/19 02:52:37;;;;;;;;;13.67;12.33;;;;;25.25;54.73;100949.63;5073509;28;45516;-68
2022/05/19 02:55:04;;;;;;;;;15.00;14.33;;;;;25.20;54.60;100947.91;5072441;28;45451;-71
2022/05/19 02:57:30;;;;;;;;;15.00;13.00;;;;;25.13;55.01;100929.91;5055628;28;47491;-68
2022/05/19 02:59:55;;;;;;;;;14.00;12.67;;;;;25.28;54.60;100958.66;5072813;28;45509;-69
2022/05/19 03:02:20;;;;;;;;;12.67;11.67;;;;;25.12;55.02;100932.69;5073678;28;45444;-69
2022/05/19 03:04:46;;;;;;;;;13.33;12.67;;;;;25.29;54.66;100959.53;5069979;28;45741;-69
2022/05/19 03:07:11;;;;;;;;;18.00;12.67;;;;;25.27;54.47;100969.63;5072400;28;45991;-70
2022/05/19 03:09:38;;;;;;;;;18.00;13.00;;;;;25.27;55.25;100961.44;5068572;28;45544;-68
2022/05/19 03:12:03;;;;;;;;;11.33;10.67;;;;;25.24;54.77;100965.09;5070001;28;45492;-68
2022/05/19 03:14:30;;;;;;;;;13.00;12.33;;;;;24.79;54.90;100900.88;5074132;28;45410;-70
2022/05/19 03:16:56;;;;;;;;;11.33;11.33;;;;;25.12;54.81;100965.50;5075207;28;46266;-69
2022/05/19 03:19:21;;;;;;;;;13.00;12.67;;;;;25.05;55.25;100961.19;5056331;28;45725;-68
2022/05/19 03:21:47;;;;;;;;;14.33;13.33;;;;;25.04;54.96;100946.59;5074914;28;45521;-70
2022/05/19 03:24:12;;;;;;;;;12.67;12.67;;;;;24.99;55.35;100933.06;5074422;28;45370;-69
2022/05/19 03:26:37;;;;;;;;;11.00;11.00;;;;;24.67;55.73;100878.50;5073395;28;45633;-70
2022/05/19 03:29:04;;;;;;;;;15.00;12.00;;;;;25.07;55.35;100956.56;5073857;28;45303;-70
2022/05/19 03:31:30;;;;;;;;;14.67;14.33;;;;;25.01;55.70;100964.00;5073562;28;45423;-70
2022/05/19 03:33:55;;;;;;;;;10.00;10.00;;;;;24.87;56.43;100940.75;5073941;28;45612;-68
2022/05/19 03:36:21;;;;;;;;;15.00;15.00;;;;;24.97;56.10;100965.00;5073388;28;46529;-69
2022/05/19 03:38:47;;;;;;;;;13.67;13.00;;;;;24.84;56.28;100953.56;5073819;28;45511;-71
2022/05/19 03:41:12;;;;;;;;;21.33;15.00;;;;;24.90;56.23;100954.34;5073084;28;45645;-68
2022/05/19 03:43:38;;;;;;;;;15.33;13.33;;;;;24.96;56.15;100957.78;5073651;28;45435;-70
2022/05/19 03:46:04;;;;;;;;;13.67;13.67;;;;;24.87;55.84;100943.50;5073542;28;45501;-73
2022/05/19 03:48:37;;;;;;;;;12.00;10.67;;;;;24.90;56.29;100947.03;5073529;28;45280;-68
2022/05/19 03:51:07;;;;;;;;;17.00;14.33;;;;;24.93;56.06;100951.47;5073788;28;45492;-70
2022/05/19 03:53:32;;;;;;;;;13.00;11.67;;;;;24.47;55.71;100891.78;5077046;28;45532;-69
2022/05/19 03:55:58;;;;;;;;;16.33;13.00;;;;;24.90;55.95;100955.22;5057978;28;47918;-70
2022/05/19 03:58:23;;;;;;;;;15.67;14.33;;;;;24.81;55.97;100950.03;5076787;28;45461;-71
2022/05/19 04:00:49;;;;;;;;;14.00;14.00;;;;;24.71;55.83;100934.84;5076929;28;45453;-72
2022/05/19 04:03:14;;;;;;;;;13.67;13.00;;;;;24.87;56.35;100966.25;5077223;28;45442;-69
2022/05/19 04:05:40;;;;;;;;;11.00;11.00;;;;;24.84;56.12;100958.13;5076718;28;46104;-70
2022/05/19 04:08:06;;;;;;;;;15.00;12.33;;;;;24.73;56.04;100944.81;5076857;28;45298;-69
2022/05/19 04:10:32;;;;;;;;;13.00;13.00;;;;;24.81;56.37;100974.63;5076493;28;45493;-70
2022/05/19 04:12:58;;;;;;;;;11.67;11.67;;;;;24.68;56.70;100963.13;5067769;28;45639;-69
2022/05/19 04:15:23;;;;;;;;;14.33;13.67;;;;;24.68;56.60;100948.59;5071600;28;46325;-70
2022/05/19 04:17:49;;;;;;;;;14.33;13.67;;;;;24.58;56.50;100928.84;5075462;28;45500;-70
2022/05/19 04:20:15;;;;;;;;;16.33;13.67;;;;;24.77;56.21;100959.25;5075944;28;45526;-67
2022/05/19 04:22:41;;;;;;;;;14.33;14.00;;;;;24.48;56.49;100928.16;5073350;28;45535;-68
2022/05/19 04:25:08;;;;;;;;;15.67;13.67;;;;;24.76;56.71;100965.66;5057751;28;46043;-67
2022/05/19 04:27:34;;;;;;;;;18.00;13.00;;;;;24.67;56.49;100938.63;5076135;28;45374;-69
2022/05/19 04:29:59;;;;;;;;;15.67;15.67;;;;;24.67;56.43;100936.78;5076370;28;45671;-68
2022/05/19 04:32:24;;;;;;;;;18.33;15.33;;;;;24.75;56.20;100950.19;5076869;28;45381;-68
2022/05/19 04:34:50;;;;;;;;;19.33;17.67;;;;;24.75;55.98;100962.03;5076359;28;45632;-69
2022/05/19 04:37:15;;;;;;;;;16.00;15.33;;;;;24.76;56.32;100961.06;5075882;28;45486;-67
2022/05/19 04:39:41;;;;;;;;;17.33;15.67;;;;;24.44;55.84;100908.25;5076055;28;45357;-68
2022/05/19 04:42:08;;;;;;;;;15.33;15.33;;;;;24.62;55.75;100938.75;5070056;28;45413;-68
2022/05/19 04:44:35;;;;;;;;;13.00;11.33;;;;;24.84;55.43;100964.47;5076754;28;47251;-69
2022/05/19 04:47:00;;;;;;;;;14.33;12.33;;;;;24.88;55.71;100972.59;5077256;28;45262;-71
2022/05/19 04:49:26;;;;;;;;;15.00;11.33;;;;;24.86;55.53;100961.69;5077505;28;45385;-68
2022/05/19 04:51:51;;;;;;;;;15.33;13.67;;;;;24.86;55.12;100967.16;5076695;28;45386;-70
2022/05/19 04:54:17;;;;;;;;;14.33;13.67;;;;;24.93;55.54;100989.75;5076096;28;45401;-71
2022/05/19 04:56:43;;;;;;;;;17.00;16.00;;;;;24.92;55.28;101001.66;5070350;28;45684;-71
2022/05/19 04:59:14;;;;;;;;;13.67;10.67;;;;;24.90;55.23;101015.34;5075869;28;45547;-69
2022/05/19 05:01:44;;;;;;;;;14.33;13.33;;;;;24.90;55.25;101011.72;5076007;28;45361;-69
2022/05/19 05:04:10;;;;;;;;;10.67;10.67;;;;;24.88;55.25;101006.31;5074809;28;46417;-71
2022/05/19 05:06:36;;;;;;;;;14.67;13.33;;;;;24.88;55.18;101016.31;5075466;28;45425;-70
2022/05/19 05:09:02;;;;;;;;;13.33;13.33;;;;;24.77;55.41;101001.13;5075390;28;45509;-70
2022/05/19 05:11:27;;;;;;;;;13.67;13.67;;;;;24.88;55.35;101017.25;5075432;28;45458;-69
2022/05/19 05:13:52;;;;;;;;;16.00;13.33;;;;;24.74;55.49;100998.50;5070477;28;46231;-70
2022/05/19 05:16:18;;;;;;;;;18.00;16.33;;;;;24.94;55.47;101017.03;5056677;28;45428;-71
2022/05/19 05:18:43;;;;;;;;;14.67;11.67;;;;;24.91;55.33;101016.25;5075115;28;45457;-68
2022/05/19 05:21:13;;;;;;;;;18.67;15.00;;;;;24.81;55.45;101010.13;5072549;28;45615;-71
2022/05/19 05:23:38;;;;;;;;;13.00;11.33;;;;;24.98;55.05;101067.06;5075112;28;45392;-69
2022/05/19 05:26:05;;;;;;;;;16.00;15.00;;;;;24.85;55.74;101069.25;5075218;28;45460;-72
2022/05/19 05:28:31;;;;;;;;;16.33;14.67;;;;;24.91;55.41;101052.66;5075283;28;45434;-70
2022/05/19 05:30:57;;;;;;;;;12.67;12.00;;;;;24.98;55.06;101057.03;5074284;28;45380;-72
2022/05/19 05:33:22;;;;;;;;;13.67;12.67;;;;;25.00;55.29;101059.72;5082021;28;46868;-72
2022/05/19 05:35:47;;;;;;;;;18.00;13.33;;;;;24.97;55.60;101076.22;5087068;28;45190;-68
2022/05/19 05:38:13;;;;;;;;;15.67;13.00;;;;;24.90;55.45;101064.56;5070852;28;45119;-69
2022/05/19 05:40:39;;;;;;;;;14.67;10.67;;;;;24.79;55.09;101036.63;5091654;28;45266;-71
2022/05/19 05:43:13;;;;;;;;;10.67;8.33;;;;;24.84;55.42;101054.66;5087490;28;45507;-72
2022/05/19 05:45:39;;;;;;;;;20.33;14.67;;;;;24.58;55.30;101000.78;5072590;28;45476;-70
2022/05/19 05:48:05;;;;;;;;;18.33;13.33;;;;;24.72;55.13;101030.44;5089299;28;45071;-70
2022/05/19 05:50:30;;;;;;;;;11.00;11.00;;;;;24.85;55.02;101041.91;5092224;28;45219;-72
2022/05/19 05:52:56;;;;;;;;;12.33;11.00;;;;;25.04;55.26;101072.34;5087019;27;45458;-72
2022/05/19 05:55:21;;;;;;;;;13.33;12.67;;;;;25.01;54.90;101073.34;5090312;28;45157;-73
2022/05/19 05:57:47;;;;;;;;;16.00;13.33;;;;;25.02;55.22;101066.03;5087495;28;45534;-69
2022/05/19 06:00:15;;;;;;;;;14.33;13.33;;;;;25.07;54.80;101058.59;5089735;28;45044;-73
2022/05/19 06:02:41;;;;;;;;;16.00;15.00;;;;;24.97;54.73;101040.66;5079719;28;45712;-70
2022/05/19 06:05:07;;;;;;;;;16.00;16.00;;;;;25.08;54.73;101074.06;5068953;28;45440;-71
2022/05/19 06:07:32;;;;;;;;;17.67;14.33;;;;;25.12;54.31;101053.00;5073190;28;45846;-71
2022/05/19 06:09:58;;;;;;;;;13.67;12.00;;;;;25.15;54.51;101058.38;5072503;28;45705;-70
2022/05/19 06:12:25;;;;;;;;;12.33;12.33;;;;;25.18;53.94;101048.25;5071686;28;45502;-71
2022/05/19 06:14:53;;;;;;;;;13.33;13.33;;;;;25.01;54.33;101005.00;5078876;28;45490;-73
2022/05/19 06:17:19;;;;;;;;;13.33;12.67;;;;;25.06;54.04;101029.44;5084794;28;45350;-68
2022/05/19 06:19:44;;;;;;;;;13.67;12.67;;;;;25.23;54.32;101058.13;5080347;28;45415;-71
2022/05/19 06:22:09;;;;;;;;;13.00;11.00;;;;;25.13;54.21;101044.75;5090308;28;46224;-70
2022/05/19 06:24:35;;;;;;;;;15.33;12.00;;;;;25.26;54.08;101060.78;5081534;28;46504;-73
2022/05/19 06:27:00;;;;;;;;;15.67;15.00;;;;;25.33;53.88;101078.84;5080707;28;45119;-71
2022/05/19 06:29:26;;;;;;;;;18.67;14.00;;;;;25.33;54.50;101070.66;5079902;28;45508;-73
2022/05/19 06:31:51;;;;;;;;;15.00;14.33;;;;;25.16;53.77;101041.00;5079049;28;45431;-71
2022/05/19 06:34:17;;;;;;;;;18.00;14.67;;;;;25.33;54.26;101068.81;5075814;28;45454;-70
2022/05/19 06:36:43;;;;;;;;;14.00;11.67;;;;;25.32;54.23;101066.09;5074546;28;45456;-70
2022/05/19 06:39:09;;;;;;;;;14.00;13.33;;;;;25.14;54.27;101023.75;5074065;28;45539;-69
2022/05/19 06:44:19;;;;;;;;;11.00;11.00;;;;;25.37;53.88;101066.88;5073467;28;45539;-68
2022/05/19 06:46:45;;;;;;;;;10.00;10.00;;;;;25.27;54.46;101043.47;5073242;28;45479;-68
2022/05/19 06:49:11;;;;;;;;;12.00;12.00;;;;;25.46;54.05;101074.81;5073531;28;45394;-68
2022/05/19 06:51:36;;;;;;;;;14.67;11.67;;;;;25.49;54.16;101069.25;5073083;28;46627;-74
2022/05/19 06:54:02;;;;;;;;;14.67;13.00;;;;;25.45;53.87;101067.53;5073139;28;45268;-71
2022/05/19 06:56:27;;;;;;;;;12.00;12.00;;;;;25.50;54.13;101072.88;5073378;28;45508;-69
2022/05/19 06:58:53;;;;;;;;;16.33;14.67;;;;;25.44;53.98;101046.59;5073711;28;45298;-72
2022/05/19 07:01:19;;;;;;;;;20.67;17.00;;;;;25.51;53.28;101061.88;5073084;28;45330;-71
2022/05/19 07:03:44;;;;;;;;;18.33;16.00;;;;;25.64;53.76;101076.09;5054561;28;45720;-69
2022/05/19 07:06:09;;;;;;;;;15.33;12.67;;;;;25.60;53.43;101073.47;5073418;28;45610;-69
2022/05/19 07:08:36;;;;;;;;;18.67;13.33;;;;;25.66;53.63;101074.19;5073088;28;45507;-74
2022/05/19 07:11:02;;;;;;;;;15.33;15.33;;;;;25.44;53.83;101045.69;5053927;28;45944;-72
2022/05/19 07:13:29;;;;;;;;;16.00;11.33;;;;;25.67;53.47;101075.06;5073003;28;45361;-69
2022/05/19 07:15:54;;;;;;;;;18.33;18.33;;;;;25.70;53.33;101088.66;5073642;28;45321;-71
2022/05/19 07:18:19;;;;;;;;;16.67;14.33;;;;;25.50;53.43;101056.44;5073622;28;45492;-71
2022/05/19 07:20:47;;;;;;;;;16.67;15.00;;;;;25.28;53.57;101031.59;5072902;28;46332;-74
2022/05/19 07:23:21;;;;;;;;;22.33;18.00;;;;;25.50;53.53;101062.81;5072778;28;45271;-69
2022/05/19 07:25:47;;;;;;;;;22.33;18.00;;;;;25.49;53.58;101062.84;5072616;28;45508;-73
2022/05/19 07:28:14;;;;;;;;;18.00;15.67;;;;;25.42;53.78;101062.16;5076619;28;45433;-69
2022/05/19 07:30:41;;;;;;;;;14.67;14.67;;;;;25.27;54.04;101041.63;5076479;28;45484;-70
2022/05/19 07:33:07;;;;;;;;;36.25;34.00;;;;;25.48;54.20;101081.13;5076460;28;44777;-69
2022/05/19 07:35:34;;;;;;;;;20.33;16.33;;;;;25.24;54.01;101036.22;5076728;28;45505;-69
2022/05/19 07:37:59;;;;;;;;;17.33;14.33;;;;;25.55;53.80;101081.81;5076849;28;45395;-72
2022/05/19 07:40:25;;;;;;;;;16.33;16.33;;;;;25.59;54.10;101090.81;5076476;28;45368;-69
2022/05/19 07:42:50;;;;;;;;;20.33;17.00;;;;;25.64;53.84;101102.53;5077759;28;45494;-70
2022/05/19 07:45:16;;;;;;;;;21.67;16.33;;;;;25.28;53.65;101020.66;5059584;28;45318;-72
2022/05/19 07:47:42;;;;;;;;;19.00;17.33;;;;;25.73;53.75;101094.94;5079107;28;45438;-75
2022/05/19 07:50:10;;;;;;;;;27.25;23.50;;;;;25.62;53.60;101057.91;5076238;28;45905;-74
2022/05/19 07:52:37;;;;;;;;;21.00;17.67;;;;;25.83;52.96;101090.06;5076342;28;45651;-68
2022/05/19 07:55:03;;;;;;;;;18.67;17.33;;;;;25.86;53.46;101089.09;5075992;28;45365;-76
2022/05/19 07:57:29;;;;;;;;;19.00;17.50;;;;;25.87;53.29;101107.28;5057962;28;45389;-71
2022/05/19 07:59:55;;;;;;;;;18.33;18.33;;;;;25.84;53.01;101086.41;5075917;28;45500;-69
2022/05/19 08:02:21;;;;;;;;;21.33;17.00;;;;;25.92;53.00;101091.63;5076131;28;45331;-71
2022/05/19 08:04:46;;;;;;;;;16.33;15.00;;;;;26.15;52.55;101122.88;5075988;28;45386;-74
2022/05/19 08:07:12;;;;;;;;;21.67;20.33;;;;;26.00;52.46;101089.56;5057891;28;45659;-69
2022/05/19 08:17:55;;;;;;;;;18.33;18.00;;;;;26.60;51.73;101130.50;5077549;28;45360;-73
2022/05/19 08:20:21;;;;;;;;;23.67;20.00;;;;;26.73;51.57;101145.63;5076308;28;45992;-68
2022/05/19 08:22:46;;;;;;;;;24.50;20.50;;;;;26.69;51.62;101137.53;5077094;28;45602;-68
2022/05/19 08:25:13;;;;;;;;;23.33;19.67;;;;;26.65;51.86;101154.09;5057972;28;45266;-71
2022/05/19 08:27:39;;;;;;;;;18.00;17.67;;;;;26.61;52.24;101149.66;5076015;28;45468;-73
2022/05/19 08:30:05;;;;;;;;;18.33;16.67;;;;;26.65;51.99;101159.56;5057203;28;45648;-71
2022/05/19 08:32:30;;;;;;;;;15.67;15.00;;;;;26.72;51.66;101167.59;5075662;28;45354;-74
2022/05/19 08:34:56;;;;;;;;;20.33;18.00;;;;;26.71;51.66;101198.69;5076246;28;45540;-72
2022/05/19 08:37:21;;;;;;;;;15.00;12.33;;;;;26.64;51.75;101192.50;5076515;28;45506;-77
2022/05/19 08:39:46;;;;;;;;;25.00;17.33;;;;;26.65;51.15;101200.69;5075128;28;46436;-70
2022/05/19 08:42:15;;;;;;;;;14.00;11.67;;;;;26.56;50.71;101225.59;5075995;28;45381;-67
2022/05/19 08:44:48;;;;;;;;;23.33;20.00;;;;;26.55;50.48;101225.69;5075557;28;45437;-74
2022/05/19 08:47:20;;;;;;;;;15.00;14.00;;;;;26.54;49.87;101227.50;5075709;28;45414;-73
2022/05/19 08:49:51;;;;;;;;;18.00;14.00;;;;;26.51;49.77;101229.47;5075000;28;46010;-74
2022/05/19 08:52:27;;;;;;;;;15.67;13.33;;;;;26.33;50.22;101240.06;5075306;28;45406;-69
2022/05/19 08:54:57;;;;;;;;;12.33;11.00;;;;;26.40;49.60;101246.22;5075739;28;45488;-71
2022/05/19 08:57:40;;;;;;;;;15.67;15.00;;;;;26.48;49.10;101242.31;5075633;28;45364;-76
2022/05/19 09:00:14;;;;;;;;;18.67;15.00;;;;;26.61;48.82;101234.59;5075112;28;45537;-70
2022/05/19 09:02:54;;;;;;;;;10.33;9.67;;;;;26.48;48.75;101195.75;5075475;28;45441;-76
2022/05/19 09:05:46;;;;;;;;;11.33;10.67;;;;;26.81;48.04;101220.28;5075811;28;45415;-78
2022/05/19 09:08:33;;;;;;;;;10.67;10.67;;;;;26.97;47.75;101233.44;5057649;28;45581;-71
2022/05/19 09:11:10;;;;;;;;;10.67;10.00;;;;;27.09;47.34;101251.31;5077031;28;46440;-75
2022/05/19 09:13:51;;;;;;;;;13.00;10.00;;;;;27.24;47.28;101260.84;5077653;28;45453;-69
2022/05/19 09:16:32;;;;;;;;;10.00;10.00;;;;;27.31;45.98;101263.38;5075917;28;45547;-77
2022/05/19 09:19:23;;;;;;;;;9.33;9.33;;;;;27.27;45.16;101269.88;5075142;28;45488;-72
2022/05/19 09:22:02;;;;;;;;;6.67;6.67;;;;;27.23;45.26;101292.00;5075142;28;46289;-71
2022/05/19 09:24:28;;;;;;;;;8.67;7.00;;;;;27.12;44.65;101273.16;5075027;28;45412;-71
2022/05/19 09:26:57;;;;;;;;;9.00;6.33;;;;;27.28;44.84;101304.59;5075613;28;45432;-71
2022/05/19 09:29:49;;;;;;;;;33.25;28.25;;;;;27.28;44.29;101309.19;5075279;28;45433;-70
2022/05/19 09:32:17;;;;;;;;;14.00;11.00;;;;;27.02;44.70;101303.63;5074864;28;45423;-70
2022/05/19 09:34:48;;;;;;;;;17.33;14.33;;;;;26.96;44.82;101301.13;5074736;28;45574;-71
2022/05/19 09:37:18;;;;;;;;;18.00;15.33;;;;;26.94;43.92;101297.53;5074809;28;45412;-73
2022/05/19 09:40:06;;;;;;;;;18.67;16.67;;;;;26.86;44.16;101316.09;5075021;28;45519;-73
2022/05/19 09:42:36;;;;;;;;;18.67;17.00;;;;;26.80;43.89;101344.56;5055866;28;47200;-70
2022/05/19 09:45:02;;;;;;;;;12.67;12.67;;;;;26.76;44.20;101348.38;5074989;28;45467;-71
2022/05/19 09:47:33;;;;;;;;;17.67;16.33;;;;;26.46;44.33;101311.81;5074625;28;45351;-71
2022/05/19 09:50:26;;;;;;;;;18.00;16.00;;;;;26.74;43.70;101342.03;5074313;28;45484;-69
2022/05/19 09:53:00;;;;;;;;;14.33;13.67;;;;;26.52;43.30;101321.69;5072054;28;46139;-70
2022/05/19 09:55:27;;;;;;;;;16.33;13.67;;;;;26.60;43.96;101360.72;5074174;28;45476;-69
2022/05/19 09:58:02;;;;;;;;;14.33;12.67;;;;;26.72;43.71;101368.59;5074476;28;45495;-73
2022/05/19 10:00:37;;;;;;;;;18.33;15.00;;;;;26.83;43.60;101371.91;5075104;28;45463;-71
2022/05/19 10:03:08;;;;;;;;;12.33;10.00;;;;;26.95;43.01;101369.72;5074766;28;45133;-69
2022/05/19 10:05:48;;;;;;;;;13.67;11.67;;;;;27.10;42.79;101387.53;5075255;28;45933;-70
2022/05/19 10:08:17;;;;;;;;;8.33;8.33;;;;;27.17;42.70;101368.09;5074579;28;45376;-69
2022/05/19 10:10:53;;;;;;;;;8.00;8.00;;;;;27.23;42.51;101341.38;5074828;28;45379;-74
2022/05/19 10:13:19;;;;;;;;;9.33;9.33;;;;;26.39;41.82;101167.75;5074159;28;46624;-70
2022/05/19 10:16:21;;;;;;;;;12.33;8.00;;;;;27.50;41.75;101354.16;5073778;28;45925;-71
2022/05/19 10:18:49;;;;;;;;;9.00;6.33;;;;;27.52;41.80;101354.13;5074263;28;45358;-71
2022/05/19 10:21:21;;;;;;;;;7.33;6.33;;;;;27.51;41.47;101360.59;5074338;28;45480;-71
2022/05/19 10:24:20;;;;;;;;;7.67;6.00;;;;;27.37;40.67;101397.63;5073773;28;45396;-69
2022/05/19 10:31:02;;;;;;;;;6.33;6.33;;;;;27.26;41.13;101388.81;5073952;28;45418;-74
2022/05/19 10:33:09;;;;;;;;;12.33;12.33;;;;;27.53;40.78;101400.72;5074285;28;45296;-73
2022/05/19 10:35:58;;;;;;;;;7.00;5.67;;;;;27.65;40.02;101385.69;5073662;28;46205;-68
2022/05/19 10:38:41;;;;;;;;;9.33;8.00;;;;;27.80;39.66;101366.88;5075392;28;45457;-72
2022/05/19 10:41:06;;;;;;;;;4.00;2.33;;;;;28.05;39.19;101370.56;5069502;28;45406;-70
2022/05/19 10:43:55;;;;;;;;;4.00;4.00;;;;;28.08;38.71;101358.56;5075158;28;45480;-73
2022/05/19 10:46:23;;;;;;;;;8.00;8.00;;;;;28.35;38.65;101375.88;5051476;28;45449;-72
2022/05/19 10:49:11;;;;;;;;;7.00;5.67;;;;;28.44;37.53;101370.00;5055408;28;45354;-74
2022/05/19 10:51:49;;;;;;;;;3.00;1.33;;;;;28.52;36.63;101369.72;5073753;28;45585;-72
2022/05/19 10:54:46;;;;;;;;;7.00;6.00;;;;;28.48;37.02;101388.19;5073858;28;45630;-70
2022/05/19 10:57:30;;;;;;;;;9.67;5.00;;;;;28.25;36.84;101336.84;5052350;28;45493;-77
2022/05/19 11:00:26;;;;;;;;;65.50;53.00;;;;;28.58;37.16;101387.88;5072880;28;45525;-72
2022/05/19 11:03:23;;;;;;;;;7.00;7.00;;;;;28.64;37.09;101380.28;5072531;28;45414;-71
2022/05/19 11:06:01;;;;;;;;;6.00;6.00;;;;;28.41;36.71;101339.00;5073697;28;45480;-71
2022/05/19 11:08:55;;;;;;;;;5.00;4.00;;;;;28.44;36.22;101353.50;5073136;28;46244;-70
2022/05/19 11:11:23;;;;;;;;;7.33;6.67;;;;;28.36;36.66;101382.25;5072911;28;45513;-70
2022/05/19 11:14:01;;;;;;;;;2.00;2.00;;;;;28.21;36.16;101365.38;5072825;28;45258;-78
2022/05/19 11:16:43;;;;;;;;;4.33;4.33;;;;;28.14;36.19;101377.56;5048748;28;45558;-73
2022/05/19 11:19:23;;;;;;;;;2.00;2.00;;;;;27.99;37.16;101372.66;5072805;28;45502;-68
2022/05/19 11:21:55;;;;;;;;;3.00;2.67;;;;;27.88;37.03;101360.19;5072952;28;45377;-70
2022/05/19 11:26:23;;;;;;;;;3.67;3.67;;;;;27.88;36.78;101383.97;5072690;28;45374;-68
2022/05/19 11:27:33;;;;;;;;;3.00;3.00;;;;;27.82;37.25;101371.38;5072987;28;45680;-73
2022/05/19 11:30:04;;;;;;;;;5.00;5.00;;;;;27.83;37.39;101366.78;5056217;28;47924;-75
2022/05/19 11:32:35;;;;;;;;;0.00;0.00;;;;;27.75;37.32;101342.31;5073732;28;45394;-70
2022/05/19 11:35:14;;;;;;;;;3.00;3.00;;;;;27.74;37.21;101318.59;5073297;28;45346;-73
2022/05/19 11:37:50;;;;;;;;;10.00;10.00;;;;;28.06;37.10;101360.47;5072976;28;45484;-73
2022/05/19 11:40:21;;;;;;;;;5.00;3.00;;;;;27.97;36.45;101331.50;5072923;28;45966;-72
2022/05/19 11:43:08;;;;;;;;;2.00;2.00;;;;;28.01;36.33;101343.28;5073325;28;45478;-72